Time;durP1;ratioP1;P1;durP2;ratioP2;P2;SDS_P1;SDS_P2;PMS_P1;PMS_P2;Temp;Humidity;BMP_temperature;BMP_pressure;BME280_temperature;BME280_humidity;BME280_pressure;Samples;Min_cycle;Max_cycle;Signal;HPM_P1;HPM_P2
2023/04/29 00:00:24;;;;;;;3.70;3.50;;;15.10;99.90;;;;;;5100311;28;20196;-89
2023/04/29 00:02:49;;;;;;;4.20;3.90;;;15.10;99.90;;;;;;5099706;28;20237;-91
2023/04/29 00:05:15;;;;;;;4.17;3.77;;;15.10;99.90;;;;;;5100035;28;20184;-90
2023/04/29 00:07:42;;;;;;;4.10;3.57;;;15.10;99.90;;;;;;5100995;28;20580;-91
2023/04/29 00:10:08;;;;;;;4.40;4.10;;;15.10;99.90;;;;;;5098952;28;20177;-92
2023/04/29 00:12:33;;;;;;;4.03;3.77;;;15.00;99.90;;;;;;5099593;28;20233;-91
2023/04/29 00:15:01;;;;;;;4.20;3.90;;;14.90;99.90;;;;;;5100389;28;20637;-90
2023/04/29 00:17:27;;;;;;;5.47;4.17;;;14.80;99.90;;;;;;5082616;28;20211;-90
2023/04/29 00:19:53;;;;;;;6.13;4.10;;;14.90;99.90;;;;;;5101056;28;20172;-92
2023/04/29 00:22:20;;;;;;;4.20;3.90;;;14.90;99.90;;;;;;5081753;28;20199;-90
2023/04/29 00:24:46;;;;;;;3.77;3.57;;;14.90;99.90;;;;;;5100152;28;20182;-89
2023/04/29 00:27:11;;;;;;;4.83;3.80;;;14.90;99.90;;;;;;5116065;22;20288;-86
2023/04/29 00:29:37;;;;;;;4.80;4.40;;;14.90;99.90;;;;;;5076402;28;20239;-86
2023/04/29 00:32:03;;;;;;;4.50;4.10;;;14.90;99.90;;;;;;5076409;28;20172;-86
2023/04/29 00:34:29;;;;;;;4.40;4.10;;;14.80;99.90;;;;;;5077618;28;20184;-87
2023/04/29 00:36:55;;;;;;;4.33;3.93;;;14.70;99.90;;;;;;5077085;28;20604;-86
2023/04/29 00:39:20;;;;;;;4.83;4.33;;;14.70;99.90;;;;;;5076584;28;20184;-88
2023/04/29 00:41:46;;;;;;;5.03;4.40;;;14.50;99.90;;;;;;5075184;28;20209;-87
2023/04/29 00:44:12;;;;;;;4.67;4.13;;;14.50;99.90;;;;;;5071277;28;20218;-86
2023/04/29 00:46:38;;;;;;;4.43;4.03;;;14.40;99.90;;;;;;5059454;28;20879;-86
2023/04/29 00:49:04;;;;;;;6.03;4.80;;;14.40;99.90;;;;;;5056453;28;20190;-88
2023/04/29 00:51:30;;;;;;;5.47;4.70;;;14.40;99.90;;;;;;5056800;28;20218;-87
2023/04/29 00:53:55;;;;;;;4.80;4.40;;;14.30;99.90;;;;;;5067426;28;20188;-86
2023/04/29 00:56:21;;;;;;;5.07;4.67;;;14.30;99.90;;;;;;5073651;28;20872;-88
2023/04/29 00:58:49;;;;;;;5.27;4.87;;;14.20;99.90;;;;;;5074125;28;20907;-87
2023/04/29 01:01:18;;;;;;;4.93;4.53;;;14.20;99.90;;;;;;5075624;28;20183;-86
2023/04/29 01:03:44;;;;;;;4.93;4.47;;;14.30;99.90;;;;;;5046431;28;20193;-87
2023/04/29 01:06:39;;;;;;;5.27;4.87;;;14.20;99.90;;;;;;5054731;28;20263;-86
2023/04/29 01:09:12;;;;;;;5.33;4.93;;;14.20;99.90;;;;;;5038059;28;20653;-87
2023/04/29 01:11:58;;;;;;;5.57;5.00;;;14.30;99.90;;;;;;5051676;28;20240;-86
2023/04/29 01:14:24;;;;;;;5.37;4.97;;;14.30;99.90;;;;;;5054094;28;20171;-87
2023/04/29 01:16:55;;;;;;;6.53;5.67;;;14.30;99.90;;;;;;5035647;28;20208;-86
2023/04/29 01:19:33;;;;;;;5.00;4.70;;;14.30;99.90;;;;;;5054503;28;20183;-87
2023/04/29 01:21:58;;;;;;;5.17;4.80;;;14.30;99.90;;;;;;5037032;28;20767;-86
2023/04/29 01:24:24;;;;;;;5.03;4.53;;;14.30;99.90;;;;;;5075688;28;20181;-87
2023/04/29 01:27:04;;;;;;;5.37;4.87;;;14.20;99.90;;;;;;5079191;28;20199;-87
2023/04/29 01:29:45;;;;;;;5.17;4.77;;;14.20;99.90;;;;;;5081316;28;20163;-87
2023/04/29 01:32:25;;;;;;;6.23;4.63;;;14.30;99.90;;;;;;5074898;28;20304;-88
2023/04/29 01:35:31;;;;;;;5.07;4.60;;;14.30;99.90;;;;;;5074996;28;20232;-87
2023/04/29 01:38:34;;;;;;;4.63;4.10;;;14.30;99.90;;;;;;5074400;28;20238;-87
2023/04/29 01:41:27;;;;;;;4.83;4.33;;;14.30;99.90;;;;;;5074942;28;20174;-89
2023/04/29 01:43:57;;;;;;;5.03;4.63;;;14.30;99.90;;;;;;5054958;28;20179;-87
2023/04/29 01:46:22;;;;;;;5.00;4.50;;;14.30;99.90;;;;;;5054910;28;20227;-88
2023/04/29 01:48:51;;;;;;;4.50;4.20;;;14.30;99.90;;;;;;5054364;28;20184;-87
2023/04/29 01:51:17;;;;;;;4.83;4.43;;;14.40;99.90;;;;;;5057432;28;20185;-89
2023/04/29 01:53:43;;;;;;;4.83;4.20;;;14.40;99.90;;;;;;5055609;28;20781;-87
2023/04/29 01:56:08;;;;;;;4.63;4.30;;;14.30;99.90;;;;;;5065862;28;20201;-86
2023/04/29 01:58:34;;;;;;;5.03;4.60;;;14.30;99.90;;;;;;5071216;28;20220;-87
2023/04/29 02:01:00;;;;;;;4.67;4.30;;;14.20;99.90;;;;;;5054352;28;20199;-87
2023/04/29 02:03:25;;;;;;;4.73;4.30;;;14.30;99.90;;;;;;5061645;28;20500;-86
2023/04/29 02:05:51;;;;;;;5.33;4.93;;;14.20;99.90;;;;;;5071628;28;20249;-86
2023/04/29 02:08:17;;;;;;;5.33;4.83;;;14.30;99.90;;;;;;5053611;28;20210;-87
2023/04/29 02:10:56;;;;;;;4.83;4.43;;;14.20;99.90;;;;;;5074776;28;20183;-87
2023/04/29 02:13:22;;;;;;;4.90;4.40;;;14.30;99.90;;;;;;5075481;28;20885;-88
2023/04/29 02:15:48;;;;;;;4.97;4.50;;;14.30;99.90;;;;;;5061998;28;20269;-86
2023/04/29 02:18:14;;;;;;;5.27;4.77;;;14.30;99.90;;;;;;5053963;28;20207;-86
2023/04/29 02:20:40;;;;;;;4.80;4.50;;;14.30;99.90;;;;;;5053977;28;20175;-87
2023/04/29 02:23:06;;;;;;;5.17;4.77;;;14.10;99.90;;;;;;5054390;28;20214;-86
2023/04/29 02:25:31;;;;;;;5.73;5.10;;;14.10;99.90;;;;;;5054936;28;20279;-87
2023/04/29 02:27:57;;;;;;;5.30;4.90;;;14.10;99.90;;;;;;5047794;28;20244;-87
2023/04/29 02:30:23;;;;;;;5.83;4.80;;;13.90;99.90;;;;;;5073842;28;20186;-87
2023/04/29 02:32:48;;;;;;;5.43;5.03;;;13.90;99.90;;;;;;5071440;28;20184;-85
2023/04/29 02:35:14;;;;;;;4.50;4.20;;;13.90;99.90;;;;;;5059769;28;20917;-86
2023/04/29 02:37:40;;;;;;;5.60;5.10;;;14.00;99.90;;;;;;5073231;28;20303;-89
2023/04/29 02:40:06;;;;;;;5.37;4.37;;;14.00;99.90;;;;;;5073010;28;20176;-86
2023/04/29 02:42:31;;;;;;;4.77;4.47;;;14.00;99.90;;;;;;5072842;28;20173;-85
2023/04/29 02:44:57;;;;;;;4.47;4.17;;;14.00;99.90;;;;;;5060848;28;20181;-87
2023/04/29 02:47:23;;;;;;;4.87;4.50;;;13.90;99.90;;;;;;5061688;28;20200;-86
2023/04/29 02:49:49;;;;;;;6.07;4.87;;;13.90;99.90;;;;;;5062425;28;20199;-88
2023/04/29 02:52:15;;;;;;;5.10;4.70;;;13.90;99.90;;;;;;5060756;28;20659;-87
2023/04/29 02:54:41;;;;;;;5.33;4.87;;;13.80;99.90;;;;;;5052026;28;20210;-88
2023/04/29 02:57:07;;;;;;;5.10;4.70;;;13.80;99.90;;;;;;5043752;28;20703;-86
2023/04/29 02:59:33;;;;;;;4.90;4.60;;;13.80;99.90;;;;;;5050698;28;20426;-86
2023/04/29 03:02:00;;;;;;;5.30;4.90;;;13.80;99.90;;;;;;5065164;28;20184;-87
2023/04/29 03:04:27;;;;;;;5.50;5.00;;;13.70;99.90;;;;;;5071252;28;20180;-87
2023/04/29 03:06:55;;;;;;;5.10;4.60;;;13.70;99.90;;;;;;5072109;28;20211;-86
2023/04/29 03:09:21;;;;;;;4.80;4.47;;;13.70;99.90;;;;;;5070641;28;20659;-87
2023/04/29 03:11:47;;;;;;;5.07;4.57;;;13.70;99.90;;;;;;5070467;28;20190;-85
2023/04/29 03:14:13;;;;;;;5.20;4.70;;;13.70;99.90;;;;;;5072044;28;20259;-87
2023/04/29 03:16:38;;;;;;;5.00;4.60;;;13.70;99.90;;;;;;5073654;28;20216;-86
2023/04/29 03:19:04;;;;;;;5.03;4.53;;;13.60;99.90;;;;;;5073658;28;20179;-87
2023/04/29 03:21:30;;;;;;;4.57;4.27;;;13.60;99.90;;;;;;5064031;28;20200;-86
2023/04/29 03:23:55;;;;;;;5.10;4.60;;;13.50;99.90;;;;;;5061771;28;20193;-86
2023/04/29 03:26:23;;;;;;;5.10;4.60;;;13.60;99.90;;;;;;5071438;28;20207;-88
2023/04/29 03:28:48;;;;;;;4.70;4.30;;;13.60;99.90;;;;;;5071643;28;20652;-87
2023/04/29 03:31:15;;;;;;;4.50;4.20;;;13.60;99.90;;;;;;5054763;28;20188;-87
2023/04/29 03:33:41;;;;;;;5.20;4.80;;;13.60;99.90;;;;;;5059643;28;20185;-86
2023/04/29 03:36:07;;;;;;;4.80;4.40;;;13.50;99.90;;;;;;5053008;28;20212;-86
2023/04/29 03:38:33;;;;;;;4.77;4.27;;;13.50;99.90;;;;;;5053045;28;20243;-86
2023/04/29 03:40:59;;;;;;;4.60;4.27;;;13.50;99.90;;;;;;5051206;28;20248;-86
2023/04/29 03:43:25;;;;;;;4.50;4.20;;;13.50;99.90;;;;;;5051979;28;20198;-85
2023/04/29 03:45:51;;;;;;;4.20;3.90;;;13.50;99.90;;;;;;5037006;28;20207;-86
2023/04/29 03:48:17;;;;;;;4.67;4.37;;;13.40;99.90;;;;;;5043526;28;20432;-86
2023/04/29 03:50:43;;;;;;;4.40;4.10;;;13.40;99.90;;;;;;5025595;28;20211;-86
2023/04/29 03:53:08;;;;;;;4.63;4.03;;;13.40;99.90;;;;;;5053213;28;20199;-89
2023/04/29 03:55:34;;;;;;;4.80;4.40;;;13.40;99.90;;;;;;5053697;28;20206;-88
2023/04/29 03:58:00;;;;;;;4.13;3.83;;;13.30;99.90;;;;;;5048952;28;20770;-87
2023/04/29 04:00:29;;;;;;;4.20;3.80;;;13.30;99.90;;;;;;5050861;28;20714;-86
2023/04/29 04:02:56;;;;;;;4.20;3.90;;;13.30;99.90;;;;;;5052745;28;20199;-85
2023/04/29 04:05:24;;;;;;;3.83;3.60;;;13.20;99.90;;;;;;5051885;28;20247;-87
2023/04/29 04:07:50;;;;;;;4.03;3.70;;;13.10;99.90;;;;;;5057415;28;20187;-86
2023/04/29 04:10:16;;;;;;;3.93;3.63;;;13.10;99.90;;;;;;5050676;28;20238;-90
2023/04/29 04:12:42;;;;;;;4.40;4.00;;;13.00;99.90;;;;;;5037616;28;20285;-87
2023/04/29 04:15:08;;;;;;;4.13;3.70;;;13.00;99.90;;;;;;5073456;28;20180;-86
2023/04/29 04:17:33;;;;;;;4.43;4.13;;;13.00;99.90;;;;;;5075763;28;20210;-87
2023/04/29 04:19:59;;;;;;;4.50;4.20;;;12.90;99.90;;;;;;5076061;28;20223;-86
2023/04/29 04:22:24;;;;;;;4.40;4.10;;;12.90;99.90;;;;;;5074469;28;20176;-87
2023/04/29 04:24:50;;;;;;;5.13;4.70;;;13.00;99.90;;;;;;5073402;28;20179;-88
2023/04/29 04:27:15;;;;;;;4.10;3.73;;;13.00;99.90;;;;;;5075628;28;20226;-87
2023/04/29 04:29:41;;;;;;;5.27;4.00;;;13.00;99.90;;;;;;5075628;28;20856;-87
2023/04/29 04:32:07;;;;;;;4.47;4.13;;;13.00;99.90;;;;;;5075982;28;20184;-87
2023/04/29 04:34:32;;;;;;;4.27;3.97;;;13.00;99.90;;;;;;5042017;28;20194;-88
2023/04/29 04:36:58;;;;;;;5.57;4.40;;;13.00;99.90;;;;;;5074443;28;20204;-86
2023/04/29 04:39:24;;;;;;;5.73;4.60;;;12.80;99.90;;;;;;5075097;28;20272;-87
2023/04/29 04:41:49;;;;;;;4.30;4.00;;;12.70;99.90;;;;;;5073173;28;20251;-87
2023/04/29 04:44:15;;;;;;;4.67;4.27;;;12.70;99.90;;;;;;5066251;28;20178;-87
2023/04/29 04:46:42;;;;;;;4.50;4.10;;;12.70;99.90;;;;;;5053558;28;20206;-87
2023/04/29 04:49:07;;;;;;;4.70;4.30;;;12.80;99.90;;;;;;5049555;28;20217;-86
2023/04/29 04:51:33;;;;;;;4.20;3.90;;;12.70;99.90;;;;;;5052247;28;20476;-86
2023/04/29 04:53:59;;;;;;;4.67;3.77;;;12.80;99.90;;;;;;5051176;28;20180;-88
2023/04/29 04:56:24;;;;;;;4.40;4.10;;;12.80;99.90;;;;;;5051254;28;20952;-86
2023/04/29 04:58:50;;;;;;;4.00;3.70;;;12.80;99.90;;;;;;5058599;28;20244;-86
2023/04/29 05:01:16;;;;;;;4.07;3.77;;;12.80;99.90;;;;;;5052136;28;20180;-86
2023/04/29 05:03:41;;;;;;;5.30;4.90;;;12.80;99.90;;;;;;5063245;28;20230;-86
2023/04/29 05:06:07;;;;;;;4.40;4.10;;;12.80;99.90;;;;;;5074328;28;20207;-89
2023/04/29 05:08:32;;;;;;;4.10;3.80;;;12.80;99.90;;;;;;5075057;28;20187;-87
2023/04/29 05:10:58;;;;;;;5.03;4.63;;;12.80;99.90;;;;;;5074181;28;20186;-87
2023/04/29 05:13:24;;;;;;;13.17;12.17;;;12.80;99.90;;;;;;5074210;28;20205;-86
2023/04/29 05:15:50;;;;;;;8.60;7.90;;;12.90;99.90;;;;;;5075141;28;20293;-85
2023/04/29 05:18:16;;;;;;;5.83;4.57;;;12.90;99.90;;;;;;5074304;28;20245;-87
2023/04/29 05:20:41;;;;;;;4.47;4.17;;;12.80;99.90;;;;;;5057318;28;20258;-87
2023/04/29 05:23:07;;;;;;;4.00;3.70;;;12.80;99.90;;;;;;5074590;28;20183;-86
2023/04/29 05:25:33;;;;;;;4.67;4.07;;;12.80;99.90;;;;;;5074511;28;20199;-86
2023/04/29 05:27:59;;;;;;;4.30;4.00;;;12.90;99.90;;;;;;5057731;28;20212;-86
2023/04/29 05:30:24;;;;;;;5.13;3.90;;;12.90;99.90;;;;;;5074919;28;20178;-86
2023/04/29 05:32:50;;;;;;;4.43;4.00;;;12.80;99.90;;;;;;5076489;28;20197;-86
2023/04/29 05:35:17;;;;;;;4.20;3.90;;;12.90;99.90;;;;;;5066884;28;20184;-88
2023/04/29 05:37:43;;;;;;;6.83;4.40;;;12.90;99.90;;;;;;5055001;28;20674;-86
2023/04/29 05:40:09;;;;;;;4.70;4.30;;;12.90;99.90;;;;;;5052393;28;20190;-86
2023/04/29 05:42:35;;;;;;;4.17;3.87;;;12.90;99.90;;;;;;5052019;28;20175;-86
2023/04/29 05:45:00;;;;;;;4.37;4.07;;;12.90;99.90;;;;;;5049601;28;20239;-86
2023/04/29 05:47:26;;;;;;;4.33;4.00;;;12.80;99.90;;;;;;5033665;28;20200;-86
2023/04/29 05:49:51;;;;;;;5.77;4.37;;;12.70;99.90;;;;;;5051903;28;20204;-87
2023/04/29 05:52:17;;;;;;;4.97;4.10;;;12.60;99.90;;;;;;5049494;28;20255;-87
2023/04/29 05:54:43;;;;;;;4.90;4.40;;;12.50;99.90;;;;;;5052614;28;20217;-88
2023/04/29 05:57:08;;;;;;;4.80;4.40;;;12.50;99.90;;;;;;5053074;28;20208;-87
2023/04/29 05:59:35;;;;;;;4.40;4.03;;;12.50;99.90;;;;;;5054011;28;20169;-88
2023/04/29 06:02:00;;;;;;;4.93;4.40;;;12.40;99.90;;;;;;5056134;28;20169;-88
2023/04/29 06:04:26;;;;;;;4.40;4.00;;;12.40;99.90;;;;;;5058378;28;20181;-88
2023/04/29 06:06:55;;;;;;;4.70;4.30;;;12.40;99.90;;;;;;5057950;28;20242;-88
2023/04/29 06:09:24;;;;;;;4.40;4.10;;;12.50;99.90;;;;;;5059222;28;20203;-88
2023/04/29 06:11:50;;;;;;;5.03;4.53;;;12.50;99.90;;;;;;5054948;28;20196;-88
2023/04/29 06:14:16;;;;;;;5.47;4.60;;;12.60;99.90;;;;;;5056667;28;20239;-89
2023/04/29 06:16:42;;;;;;;4.40;4.00;;;12.70;99.90;;;;;;5055690;28;20209;-87
2023/04/29 06:19:08;;;;;;;5.70;4.33;;;12.70;99.90;;;;;;5054916;28;20182;-88
2023/04/29 06:21:34;;;;;;;5.33;4.40;;;12.70;99.90;;;;;;5053883;28;20180;-88
2023/04/29 06:23:59;;;;;;;4.80;4.17;;;12.70;99.90;;;;;;5056797;28;20180;-87
2023/04/29 06:26:25;;;;;;;4.43;4.10;;;12.70;99.90;;;;;;5076148;28;20221;-89
2023/04/29 06:28:51;;;;;;;4.63;4.23;;;12.90;99.90;;;;;;5075509;28;20719;-88
2023/04/29 06:31:16;;;;;;;4.80;4.40;;;12.80;99.90;;;;;;5057094;28;20185;-87
2023/04/29 06:33:42;;;;;;;5.67;4.30;;;12.80;99.90;;;;;;5078404;28;20176;-88
2023/04/29 06:36:08;;;;;;;4.70;4.30;;;12.90;99.90;;;;;;5064177;28;20288;-87
2023/04/29 06:38:33;;;;;;;5.80;4.70;;;13.00;99.90;;;;;;5051035;28;20299;-87
2023/04/29 06:40:59;;;;;;;6.27;4.30;;;12.90;99.90;;;;;;5049976;28;20252;-86
2023/04/29 06:43:28;;;;;;;5.77;4.63;;;12.90;99.90;;;;;;5049905;28;20182;-86
2023/04/29 06:45:54;;;;;;;4.67;4.27;;;12.90;99.90;;;;;;5040786;28;20197;-87
2023/04/29 06:48:20;;;;;;;8.97;4.70;;;12.90;99.90;;;;;;5048476;28;20194;-86
2023/04/29 06:50:57;;;;;;;4.40;4.10;;;12.90;99.90;;;;;;5049091;28;20198;-87
2023/04/29 06:53:23;;;;;;;5.37;4.60;;;12.90;99.90;;;;;;5072241;28;20184;-88
2023/04/29 06:55:49;;;;;;;6.40;4.80;;;13.00;99.90;;;;;;5071484;28;20208;-86
2023/04/29 06:58:16;;;;;;;5.50;4.60;;;13.00;99.90;;;;;;5071597;28;20200;-88
2023/04/29 07:00:45;;;;;;;4.97;4.53;;;13.10;99.90;;;;;;5065755;28;20184;-89
2023/04/29 07:03:12;;;;;;;5.70;4.67;;;13.30;99.90;;;;;;5055543;28;20332;-88
2023/04/29 07:05:39;;;;;;;5.40;4.90;;;13.60;99.90;;;;;;5067471;28;20251;-88
2023/04/29 07:08:05;;;;;;;4.77;4.37;;;13.70;99.90;;;;;;5059472;28;20190;-88
2023/04/29 07:10:31;;;;;;;5.80;5.30;;;13.80;99.90;;;;;;5072173;28;20189;-89
2023/04/29 07:12:58;;;;;;;5.20;4.67;;;14.00;99.90;;;;;;5077477;28;20254;-89
2023/04/29 07:15:24;;;;;;;5.00;4.60;;;14.00;99.90;;;;;;5065352;28;20184;-88
2023/04/29 07:17:49;;;;;;;6.10;5.50;;;14.10;99.90;;;;;;5073386;28;20358;-88
2023/04/29 07:20:15;;;;;;;6.00;4.87;;;14.10;99.90;;;;;;5055297;28;20199;-86
2023/04/29 07:22:41;;;;;;;6.00;4.87;;;14.10;99.90;;;;;;5063591;28;20619;-87
2023/04/29 07:25:07;;;;;;;6.20;4.87;;;14.20;99.30;;;;;;5073536;28;20211;-89
2023/04/29 07:27:34;;;;;;;5.30;4.80;;;14.10;98.50;;;;;;5071153;28;20313;-89
2023/04/29 07:30:00;;;;;;;5.10;4.70;;;14.20;98.50;;;;;;5078335;28;20190;-88
2023/04/29 07:32:26;;;;;;;5.57;5.07;;;14.10;99.90;;;;;;5077425;28;20182;-85
2023/04/29 07:34:52;;;;;;;6.33;5.33;;;14.20;94.60;;;;;;5077534;28;20707;-89
2023/04/29 07:37:18;;;;;;;5.67;5.17;;;14.20;93.60;;;;;;5062842;28;20218;-88
2023/04/29 07:39:44;;;;;;;5.70;5.23;;;14.30;91.10;;;;;;5060309;28;20236;-87
2023/04/29 07:42:10;;;;;;;4.93;4.63;;;14.20;92.50;;;;;;5061979;28;20168;-87
2023/04/29 07:44:36;;;;;;;5.60;5.10;;;14.20;92.00;;;;;;5051813;28;20242;-88
2023/04/29 07:47:01;;;;;;;4.97;4.57;;;14.20;93.70;;;;;;5039041;28;20218;-87
2023/04/29 07:49:27;;;;;;;5.33;4.83;;;14.30;95.30;;;;;;5037848;28;20187;-88
2023/04/29 07:51:53;;;;;;;5.83;5.43;;;14.40;91.10;;;;;;5059510;28;20413;-87
2023/04/29 07:54:19;;;;;;;5.37;4.93;;;14.60;91.10;;;;;;5081075;28;20179;-89
2023/04/29 07:56:47;;;;;;;5.40;4.73;;;14.70;90.70;;;;;;5078175;28;20218;-89
2023/04/29 07:59:13;;;;;;;6.20;5.43;;;14.80;93.30;;;;;;5063190;28;20795;-89
2023/04/29 08:01:41;;;;;;;5.20;4.70;;;14.80;93.00;;;;;;5084432;28;20195;-88
2023/04/29 08:04:10;;;;;;;5.70;5.20;;;14.80;93.00;;;;;;5072677;28;20164;-87
2023/04/29 08:06:36;;;;;;;6.07;5.47;;;14.60;89.40;;;;;;5090497;28;20824;-88
2023/04/29 08:09:01;;;;;;;6.00;4.80;;;14.30;92.10;;;;;;5082129;28;20183;-89
2023/04/29 08:11:27;;;;;;;5.80;5.30;;;14.30;94.60;;;;;;5077808;28;20182;-87
2023/04/29 08:13:55;;;;;;;8.10;6.03;;;14.60;93.50;;;;;;5078524;28;20630;-87
2023/04/29 08:16:23;;;;;;;9.57;7.20;;;14.80;92.90;;;;;;5068387;28;20227;-89
2023/04/29 08:18:48;;;;;;;5.70;5.20;;;14.90;92.10;;;;;;5078871;28;20215;-89
2023/04/29 08:21:14;;;;;;;6.17;5.67;;;15.20;86.60;;;;;;5079338;28;20168;-88
2023/04/29 08:23:40;;;;;;;5.53;5.03;;;15.40;87.00;;;;;;5078303;28;20200;-89
2023/04/29 08:26:06;;;;;;;5.57;5.07;;;15.20;83.90;;;;;;5064082;28;20209;-87
2023/04/29 08:28:32;;;;;;;5.10;4.70;;;15.40;84.00;;;;;;5079337;28;20196;-88
2023/04/29 08:30:58;;;;;;;5.70;5.20;;;15.50;83.20;;;;;;5083778;28;20197;-89
2023/04/29 08:33:24;;;;;;;5.60;5.10;;;15.60;85.00;;;;;;5055170;28;20301;-88
2023/04/29 08:35:58;;;;;;;5.23;4.83;;;15.80;83.00;;;;;;5058942;28;20216;-88
2023/04/29 08:38:24;;;;;;;5.50;5.00;;;15.90;81.30;;;;;;5062865;28;20198;-89
2023/04/29 08:40:50;;;;;;;5.67;5.10;;;15.90;85.10;;;;;;5079220;28;20174;-89
2023/04/29 08:43:15;;;;;;;7.43;5.50;;;16.10;84.00;;;;;;5059711;28;20919;-88
2023/04/29 08:45:47;;;;;;;5.83;5.43;;;16.10;78.60;;;;;;5053036;28;20247;-88
2023/04/29 08:48:13;;;;;;;5.80;5.30;;;16.00;78.40;;;;;;5067040;28;20312;-89
2023/04/29 08:50:40;;;;;;;6.17;5.67;;;15.80;80.80;;;;;;5073538;28;20445;-87
2023/04/29 08:53:10;;;;;;;6.73;6.23;;;15.50;83.90;;;;;;5039143;28;20254;-86
2023/04/29 08:55:46;;;;;;;6.87;6.13;;;15.70;86.00;;;;;;5057346;28;20220;-86
2023/04/29 08:58:13;;;;;;;5.73;5.33;;;15.90;83.00;;;;;;5063160;28;20210;-88
2023/04/29 09:00:43;;;;;;;6.23;5.73;;;16.00;79.60;;;;;;5056949;28;20173;-87
2023/04/29 09:03:11;;;;;;;6.20;5.70;;;15.80;80.00;;;;;;5054984;28;20177;-88
2023/04/29 09:05:40;;;;;;;7.50;6.10;;;15.80;80.60;;;;;;5053910;28;20313;-88
2023/04/29 09:08:07;;;;;;;6.07;5.33;;;15.80;82.10;;;;;;5054933;28;20183;-88
2023/04/29 09:10:36;;;;;;;5.60;5.20;;;15.80;82.60;;;;;;5037081;28;20190;-88
2023/04/29 09:13:01;;;;;;;6.03;5.53;;;15.80;80.40;;;;;;5042294;28;20245;-88
2023/04/29 09:15:27;;;;;;;6.60;5.77;;;15.80;79.40;;;;;;5076269;28;20263;-88
2023/04/29 09:17:53;;;;;;;6.47;5.93;;;15.60;81.30;;;;;;5075995;28;20203;-88
2023/04/29 09:20:19;;;;;;;6.20;5.63;;;15.70;81.90;;;;;;5058731;28;20185;-88
2023/04/29 09:22:49;;;;;;;6.53;5.70;;;15.80;80.40;;;;;;5077672;28;20703;-88
2023/04/29 09:25:15;;;;;;;6.73;6.13;;;15.90;79.00;;;;;;5077594;28;20266;-87
2023/04/29 09:27:41;;;;;;;6.60;6.00;;;16.10;79.00;;;;;;5078004;28;20195;-87
2023/04/29 09:30:08;;;;;;;6.67;6.07;;;16.10;78.10;;;;;;5069536;28;20193;-88
2023/04/29 09:32:34;;;;;;;9.63;6.17;;;16.10;78.00;;;;;;5058161;28;20214;-88
2023/04/29 09:35:26;;;;;;;6.00;5.50;;;16.10;78.40;;;;;;5059402;28;20417;-88
2023/04/29 09:37:53;;;;;;;11.40;10.40;;;16.00;77.20;;;;;;5063444;28;20331;-87
2023/04/29 09:40:30;;;;;;;8.03;6.57;;;16.00;76.20;;;;;;5070495;28;20210;-88
2023/04/29 09:42:56;;;;;;;6.37;5.77;;;16.00;76.90;;;;;;5068642;28;20535;-88
2023/04/29 09:45:41;;;;;;;8.33;6.33;;;16.00;76.70;;;;;;5064576;28;20251;-88
2023/04/29 09:48:08;;;;;;;7.57;6.07;;;16.10;76.40;;;;;;5038289;28;20189;-91
2023/04/29 09:50:38;;;;;;;5.87;5.47;;;15.90;77.80;;;;;;5055357;28;20189;-89
2023/04/29 09:53:07;;;;;;;6.73;6.03;;;15.90;76.80;;;;;;5040745;28;20204;-89
2023/04/29 09:55:34;;;;;;;7.30;6.60;;;15.90;77.30;;;;;;5057407;28;20188;-90
2023/04/29 09:58:00;;;;;;;7.60;6.80;;;16.00;75.70;;;;;;5056972;28;20217;-89
2023/04/29 10:00:30;;;;;;;7.00;6.40;;;15.90;76.70;;;;;;5056196;28;20182;-89
2023/04/29 10:02:59;;;;;;;6.57;5.90;;;15.90;78.70;;;;;;5056951;28;20205;-89
2023/04/29 10:05:28;;;;;;;6.05;5.55;;;15.90;79.40;;;;;;5055504;28;20577;-88
2023/04/29 10:07:55;;;;;;;6.40;5.80;;;16.10;77.00;;;;;;5037325;28;20188;-89
2023/04/29 10:10:23;;;;;;;5.60;5.10;;;16.00;77.50;;;;;;5055919;28;20202;-90
2023/04/29 10:12:53;;;;;;;6.13;5.53;;;15.80;73.20;;;;;;5055079;28;20207;-89
2023/04/29 10:15:26;;;;;;;5.57;5.17;;;16.00;73.80;;;;;;5055801;28;20466;-89
2023/04/29 10:17:58;;;;;;;5.50;5.00;;;16.20;70.40;;;;;;5059124;28;20267;-89
2023/04/29 10:20:25;;;;;;;6.23;5.23;;;16.60;68.90;;;;;;5048821;28;20246;-89
2023/04/29 10:22:53;;;;;;;5.50;5.03;;;16.70;70.20;;;;;;5057512;28;20277;-88
2023/04/29 10:25:21;;;;;;;6.03;5.55;;;16.90;69.20;;;;;;5055621;28;20179;-89
2023/04/29 10:27:48;;;;;;;6.50;5.90;;;17.00;69.50;;;;;;5041993;28;20232;-90
2023/04/29 10:30:16;;;;;;;5.90;5.40;;;16.80;68.80;;;;;;5057901;28;20191;-88
2023/04/29 10:32:44;;;;;;;6.40;5.90;;;17.00;67.40;;;;;;5058070;28;20193;-88
2023/04/29 10:35:13;;;;;;;6.50;6.00;;;17.40;65.60;;;;;;5068028;28;20197;-88
2023/04/29 10:37:43;;;;;;;5.88;5.40;;;17.70;65.70;;;;;;5074408;28;20294;-88
2023/04/29 10:40:19;;;;;;;8.25;7.55;;;17.70;65.60;;;;;;5075798;28;20259;-89
2023/04/29 10:42:48;;;;;;;9.27;8.30;;;17.70;66.80;;;;;;5078636;28;20194;-88
2023/04/29 10:45:36;;;;;;;12.13;9.20;;;17.40;68.80;;;;;;5049329;28;20239;-89
2023/04/29 10:48:02;;;;;;;8.27;7.47;;;17.10;70.30;;;;;;5037935;28;20201;-89
2023/04/29 10:50:47;;;;;;;8.27;7.57;;;17.00;70.30;;;;;;5049868;28;20176;-89
2023/04/29 10:53:14;;;;;;;8.27;7.57;;;17.20;68.40;;;;;;5041970;28;20196;-88
2023/04/29 10:55:41;;;;;;;8.37;7.67;;;17.10;68.60;;;;;;5040241;28;20270;-89
2023/04/29 10:58:35;;;;;;;8.70;7.87;;;16.80;70.10;;;;;;5055517;28;20568;-89
2023/04/29 11:01:01;;;;;;;8.43;7.73;;;16.30;71.40;;;;;;5054086;28;20172;-90
2023/04/29 11:03:59;;;;;;;8.93;8.10;;;16.00;72.90;;;;;;5055950;28;20532;-89
2023/04/29 11:06:36;;;;;;;8.77;7.97;;;15.80;74.90;;;;;;5061983;28;20224;-89
2023/04/29 11:09:18;;;;;;;8.77;7.87;;;15.60;74.50;;;;;;5073771;28;20182;-89
2023/04/29 11:12:04;;;;;;;8.73;7.93;;;15.30;76.00;;;;;;5057148;28;20186;-90
2023/04/29 11:14:36;;;;;;;11.13;9.00;;;15.30;76.70;;;;;;5079759;28;20190;-89
2023/04/29 11:17:11;;;;;;;10.33;9.33;;;15.40;76.60;;;;;;5050076;28;20306;-89
2023/04/29 11:19:49;;;;;;;10.87;9.27;;;15.30;76.00;;;;;;5056953;28;20586;-89
2023/04/29 11:22:19;;;;;;;13.50;8.27;;;15.20;77.70;;;;;;5049948;28;20252;-89
2023/04/29 11:25:15;;;;;;;9.57;8.50;;;15.10;78.00;;;;;;5056126;28;20227;-89
2023/04/29 11:27:41;;;;;;;9.20;8.40;;;15.10;78.50;;;;;;5071710;28;20205;-89
2023/04/29 11:30:08;;;;;;;9.60;8.70;;;15.10;78.80;;;;;;5084689;28;20173;-88
2023/04/29 11:32:35;;;;;;;10.60;8.57;;;15.30;79.60;;;;;;5064095;28;20556;-90
2023/04/29 11:35:08;;;;;;;8.77;7.97;;;15.50;78.40;;;;;;5056126;28;20184;-89
2023/04/29 11:37:34;;;;;;;8.30;7.60;;;15.70;76.00;;;;;;5062523;28;20212;-89
2023/04/29 11:40:00;;;;;;;8.63;7.83;;;15.80;76.10;;;;;;5080921;28;20538;-89
2023/04/29 11:42:26;;;;;;;8.43;7.60;;;15.80;75.50;;;;;;5081712;28;20189;-88
2023/04/29 11:44:56;;;;;;;9.30;7.70;;;15.80;75.70;;;;;;5051649;28;20510;-89
2023/04/29 11:47:29;;;;;;;8.27;7.57;;;15.80;75.70;;;;;;5042673;28;20208;-88
2023/04/29 11:50:03;;;;;;;9.20;7.90;;;15.70;76.20;;;;;;5042421;28;20177;-89
2023/04/29 11:52:29;;;;;;;13.00;8.93;;;15.80;76.10;;;;;;5042383;28;20177;-90
2023/04/29 11:54:58;;;;;;;10.40;8.17;;;15.80;75.80;;;;;;5074902;28;20219;-88
2023/04/29 11:57:24;;;;;;;9.00;8.20;;;15.80;76.20;;;;;;5080634;28;20531;-89
2023/04/29 11:59:52;;;;;;;15.63;8.33;;;15.80;75.50;;;;;;5081122;28;20252;-88
2023/04/29 12:02:27;;;;;;;8.23;7.43;;;15.90;75.40;;;;;;5057761;28;20179;-89
2023/04/29 12:04:53;;;;;;;8.87;8.07;;;15.90;74.80;;;;;;5060576;28;20226;-90
2023/04/29 12:07:19;;;;;;;8.87;7.97;;;15.90;74.60;;;;;;5060953;28;20200;-90
2023/04/29 12:09:46;;;;;;;8.97;8.10;;;16.00;73.60;;;;;;5073273;28;20188;-90
2023/04/29 12:12:15;;;;;;;9.40;8.00;;;15.70;73.00;;;;;;5052359;28;20228;-90
2023/04/29 12:14:41;;;;;;;9.97;8.10;;;15.90;75.40;;;;;;5066246;28;20173;-89
2023/04/29 12:17:09;;;;;;;8.23;7.53;;;16.10;73.10;;;;;;5064685;28;20209;-89
2023/04/29 12:19:37;;;;;;;8.87;8.07;;;16.10;71.50;;;;;;5045124;28;20186;-89
2023/04/29 12:25:27;;;;;;;7.80;6.87;;;16.10;71.80;;;;;;5065158;28;20159;-91
2023/04/29 12:27:59;;;;;;;7.30;6.70;;;16.30;72.70;;;;;;5056526;28;20188;-89
2023/04/29 12:30:27;;;;;;;6.87;6.23;;;16.40;71.70;;;;;;5084368;28;20164;-92
2023/04/29 12:33:02;;;;;;;8.20;7.50;;;16.50;71.10;;;;;;5064685;28;20186;-90
2023/04/29 12:35:30;;;;;;;8.50;7.67;;;16.60;71.30;;;;;;5080008;28;20180;-91
2023/04/29 12:38:05;;;;;;;7.63;6.60;;;16.70;70.60;;;;;;5076464;28;20612;-90
2023/04/29 12:40:32;;;;;;;8.00;7.30;;;16.80;69.40;;;;;;5074103;28;20212;-92
2023/04/29 12:43:15;;;;;;;11.27;7.97;;;16.60;69.00;;;;;;5080647;28;20678;-91
2023/04/29 12:46:16;;;;;;;9.77;7.80;;;16.60;68.80;;;;;;5041677;28;20208;-89
2023/04/29 12:48:56;;;;;;;9.17;7.60;;;16.60;69.90;;;;;;5038770;28;20682;-90
2023/04/29 12:51:46;;;;;;;7.53;6.57;;;16.70;68.40;;;;;;5063670;28;20190;-90
2023/04/29 12:54:17;;;;;;;8.07;7.30;;;16.60;69.30;;;;;;5077380;28;20193;-89